Time;durP1;ratioP1;P1;durP2;ratioP2;P2;SDS_P1;SDS_P2;PMS_P1;PMS_P2;Temp;Humidity;BMP_temperature;BMP_pressure;BME280_temperature;BME280_humidity;BME280_pressure;Samples;Min_cycle;Max_cycle;Signal;HPM_P1;HPM_P2
2022/01/25 00:08:26;;;;;;;18.02;10.95;;;;;;;-2.91;56.17;103260.09;2568757;23;20136;-69
2022/01/25 00:25:10;;;;;;;15.65;10.80;;;;;;;-2.81;54.85;103243.78;2569516;23;20216;-69
2022/01/25 00:26:21;;;;;;;14.60;10.40;;;;;;;-3.23;54.90;103170.19;2569226;23;20172;-68
2022/01/25 00:29:34;;;;;;;15.32;9.77;;;;;;;-2.91;54.72;103260.94;2568737;23;20591;-69
2022/01/25 00:32:05;;;;;;;15.27;10.38;;;;;;;-2.98;55.67;103254.19;2555413;23;20167;-69
2022/01/25 00:33:05;;;;;;;12.73;9.50;;;;;;;-2.96;55.49;103252.00;2569563;23;20169;-69
2022/01/25 00:34:07;;;;;;;13.67;10.17;;;;;;;-2.96;55.32;103255.53;2569226;23;20153;-69
2022/01/25 00:35:08;;;;;;;13.23;9.93;;;;;;;-3.48;55.47;103160.28;2568814;23;20550;-69
2022/01/25 00:36:11;;;;;;;15.03;9.93;;;;;;;-2.94;55.13;103255.22;2569305;23;20156;-68
2022/01/25 00:37:12;;;;;;;14.40;9.40;;;;;;;-4.98;54.57;102938.66;2568147;23;20163;-68
2022/01/25 00:38:13;;;;;;;12.02;8.95;;;;;;;-2.99;55.12;103261.50;2568494;23;20149;-68
2022/01/25 00:39:13;;;;;;;14.37;9.23;;;;;;;-3.66;55.25;103155.47;2568036;23;20159;-69
2022/01/25 00:40:14;;;;;;;15.63;10.10;;;;;;;-3.01;54.86;103260.16;2567917;23;20527;-68
2022/01/25 00:41:16;;;;;;;16.43;9.83;;;;;;;-3.94;55.45;103125.47;2568252;23;20167;-69
2022/01/25 00:42:16;;;;;;;14.13;10.13;;;;;;;-3.07;55.69;103262.09;2568712;23;20603;-68
2022/01/25 00:43:20;;;;;;;13.53;9.90;;;;;;;-3.38;55.35;103235.34;2568672;23;20149;-68
2022/01/25 00:44:20;;;;;;;13.65;9.88;;;;;;;-3.05;55.34;103256.38;2569381;23;20227;-69
2022/01/25 00:45:22;;;;;;;13.97;10.33;;;;;;;-3.03;55.57;103259.63;2569382;23;20145;-68
2022/01/25 00:46:23;;;;;;;13.75;10.30;;;;;;;-3.04;55.99;103261.50;2569497;23;20201;-69
2022/01/25 00:47:25;;;;;;;15.47;10.30;;;;;;;-3.27;55.90;103209.81;2567945;23;20153;-68
2022/01/25 00:49:40;;;;;;;12.35;9.80;;;;;;;-2.97;55.06;103256.59;2569239;23;20151;-69
2022/01/25 00:50:42;;;;;;;13.98;10.15;;;;;;;-2.95;54.92;103259.03;2568455;23;20584;-68
2022/01/25 00:55:00;;;;;;;13.77;9.80;;;;;;;-2.93;54.92;103265.00;2569489;23;20187;-69
2022/01/25 00:56:01;;;;;;;13.65;10.02;;;;;;;-2.92;54.77;103251.13;2580831;23;20163;-69
2022/01/25 00:57:02;;;;;;;13.93;9.93;;;;;;;-3.53;54.48;103160.31;2580554;23;20148;-69
2022/01/25 00:58:02;;;;;;;14.68;10.00;;;;;;;-2.94;54.73;103242.47;2567645;23;20246;-69
2022/01/25 00:59:11;;;;;;;15.43;10.63;;;;;;;-3.77;54.20;103107.81;2580850;23;20637;-69
2022/01/25 01:00:13;;;;;;;13.38;10.23;;;;;;;-3.19;53.96;103198.41;2578866;23;20147;-69
2022/01/25 01:01:14;;;;;;;13.90;9.63;;;;;;;-5.14;53.72;102868.69;2580920;23;20230;-68
2022/01/25 01:02:16;;;;;;;15.70;10.47;;;;;;;-2.97;54.15;103248.44;2580657;23;20148;-69
2022/01/25 01:03:17;;;;;;;14.45;9.88;;;;;;;-3.00;54.44;103254.44;2569165;23;20144;-69
2022/01/25 01:04:18;;;;;;;13.10;10.00;;;;;;;-2.92;54.18;103251.13;2581207;23;20605;-69
2022/01/25 01:05:19;;;;;;;12.68;10.07;;;;;;;-2.87;54.36;103278.25;2580509;23;20155;-69
2022/01/25 01:06:21;;;;;;;14.98;10.43;;;;;;;-2.96;54.35;103247.38;2568961;23;20219;-69
2022/01/25 01:07:23;;;;;;;14.70;10.30;;;;;;;-3.60;54.21;103140.78;2567915;23;20152;-69
2022/01/25 01:08:23;;;;;;;13.93;9.95;;;;;;;-3.24;54.35;103210.06;2568669;23;20148;-69
2022/01/25 01:09:24;;;;;;;15.37;10.43;;;;;;;-2.97;54.64;103251.16;2569222;23;20148;-68
2022/01/25 01:10:26;;;;;;;15.43;10.83;;;;;;;-2.98;54.21;103249.53;2568110;23;20172;-69
2022/01/25 01:11:41;;;;;;;15.82;10.25;;;;;;;-2.95;54.25;103250.88;2568859;23;20203;-68
2022/01/25 01:13:25;;;;;;;14.77;10.38;;;;;;;-3.51;54.49;103160.81;2569198;23;20208;-68
2022/01/25 01:14:50;;;;;;;14.90;10.25;;;;;;;-3.24;54.09;103204.63;2568866;23;20171;-69
2022/01/25 01:15:55;;;;;;;14.35;9.32;;;;;;;-2.96;54.04;103241.97;2569316;23;20156;-68
2022/01/25 01:31:33;;;;;;;15.57;10.63;;;;;;;-3.60;55.19;103226.72;2555674;23;20214;-68
2022/01/25 01:34:16;;;;;;;15.05;10.60;;;;;;;-3.63;55.75;103213.72;2568808;23;20886;-68
2022/01/25 01:40:12;;;;;;;16.48;11.13;;;;;;;-3.69;55.57;103201.28;2568457;23;20176;-68
2022/01/25 01:42:55;;;;;;;17.05;11.30;;;;;;;-3.74;55.87;103207.50;2569634;23;20144;-68
2022/01/25 01:43:58;;;;;;;15.93;10.68;;;;;;;-3.83;56.04;103167.69;2569868;23;20216;-68
2022/01/25 01:47:02;;;;;;;19.20;11.47;;;;;;;-4.26;55.34;103104.13;2570037;23;20152;-69
2022/01/25 01:47:36;;;;;;;15.27;11.18;;;;;;;-3.98;55.74;103132.50;2556999;23;20152;-68
2022/01/25 01:49:01;;;;;;;16.65;11.35;;;;;;;-3.71;55.60;103179.03;2570037;23;20156;-68
2022/01/25 01:50:01;;;;;;;17.05;10.90;;;;;;;-3.72;55.41;103177.41;2568561;23;20164;-69
2022/01/25 01:51:13;;;;;;;18.70;11.38;;;;;;;-3.78;55.08;103171.22;2569555;23;20148;-68
2022/01/25 01:52:14;;;;;;;16.42;11.23;;;;;;;-4.53;55.27;103052.22;2570205;23;20144;-68
2022/01/25 01:53:14;;;;;;;14.50;10.50;;;;;;;-3.81;55.15;103173.66;2569769;23;20176;-69
2022/01/25 01:54:16;;;;;;;15.60;10.97;;;;;;;-4.52;54.97;103055.75;2569889;23;20152;-68
2022/01/25 01:55:17;;;;;;;15.38;10.77;;;;;;;-3.75;54.71;103169.88;2569715;23;20499;-68
2022/01/25 01:56:17;;;;;;;15.13;9.83;;;;;;;-4.20;54.69;103097.63;2568673;23;20180;-69
2022/01/25 01:57:18;;;;;;;16.47;10.90;;;;;;;-4.42;54.79;103070.06;2567808;23;20152;-68
2022/01/25 01:58:19;;;;;;;14.93;10.43;;;;;;;-3.67;54.55;103172.81;2569317;23;20223;-69
2022/01/25 01:59:19;;;;;;;15.53;10.30;;;;;;;-3.66;54.35;103174.44;2569608;23;20633;-68
2022/01/25 02:00:24;;;;;;;15.03;10.27;;;;;;;-3.71;54.64;103174.44;2568882;23;20640;-69
2022/01/25 02:01:28;;;;;;;14.43;10.27;;;;;;;-3.70;54.80;103175.28;2569782;23;20526;-68
2022/01/25 02:02:28;;;;;;;15.70;10.95;;;;;;;-3.82;54.50;103162.00;2569567;23;20206;-68
2022/01/25 02:03:29;;;;;;;13.97;10.07;;;;;;;-3.96;54.50;103152.81;2569959;23;20148;-69
2022/01/25 02:04:29;;;;;;;15.90;10.63;;;;;;;-3.82;54.89;103162.00;2568997;23;20186;-68
2022/01/25 02:05:31;;;;;;;15.30;9.87;;;;;;;-3.71;54.29;103179.88;2568773;23;20152;-68
2022/01/25 02:06:32;;;;;;;14.68;10.10;;;;;;;-4.55;54.59;103034.63;2569944;23;20145;-68
2022/01/25 02:07:32;;;;;;;14.87;10.13;;;;;;;-3.97;54.42;103134.13;2568021;23;20218;-69
2022/01/25 02:08:34;;;;;;;15.13;10.13;;;;;;;-3.77;54.52;103185.56;2569823;23;20226;-68
2022/01/25 02:09:34;;;;;;;16.02;10.70;;;;;;;-3.80;54.39;103184.22;2569448;23;20148;-68
2022/01/25 02:10:35;;;;;;;16.10;10.73;;;;;;;-3.76;54.77;103188.00;2569166;23;20231;-68
2022/01/25 02:11:37;;;;;;;17.60;10.70;;;;;;;-3.80;54.74;103186.13;2569734;23;20247;-68
2022/01/25 02:12:38;;;;;;;15.82;11.10;;;;;;;-4.56;54.58;103060.06;2569940;23;20496;-68
2022/01/25 02:13:41;;;;;;;16.93;10.60;;;;;;;-3.86;54.34;103179.91;2569365;23;20144;-68
2022/01/25 02:14:42;;;;;;;15.85;10.55;;;;;;;-3.80;54.95;103180.72;2569698;23;20502;-68
2022/01/25 02:15:47;;;;;;;16.43;11.20;;;;;;;-3.77;55.00;103180.13;2569632;23;20149;-69
2022/01/25 02:22:24;;;;;;;17.07;11.30;;;;;;;-3.94;54.34;103158.81;2567745;23;20576;-69
2022/01/25 02:23:19;;;;;;;17.55;11.40;;;;;;;-3.67;54.33;103183.66;2569003;23;20172;-69
2022/01/25 02:24:20;;;;;;;16.55;10.88;;;;;;;-3.65;54.08;103184.19;2569162;23;20153;-69
2022/01/25 02:25:21;;;;;;;18.20;11.37;;;;;;;-3.65;53.83;103183.38;2568940;23;20176;-68
2022/01/25 02:26:22;;;;;;;17.42;12.57;;;;;;;-3.80;54.07;103153.63;2569835;23;20144;-68
2022/01/25 02:27:22;;;;;;;15.83;11.40;;;;;;;-3.64;54.44;103180.38;2568033;23;20452;-68
2022/01/25 02:28:26;;;;;;;19.00;12.17;;;;;;;-3.59;54.28;103177.66;2569122;23;20144;-69
2022/01/25 02:29:27;;;;;;;24.30;12.05;;;;;;;-4.46;53.47;103060.06;2569524;23;20176;-68
2022/01/25 02:30:27;;;;;;;18.87;13.13;;;;;;;-3.71;54.12;103181.75;2568966;23;20155;-68
2022/01/25 02:31:28;;;;;;;16.53;12.00;;;;;;;-3.88;54.23;103167.72;2569718;23;20152;-68
2022/01/25 02:32:28;;;;;;;18.50;12.97;;;;;;;-4.20;54.01;103119.28;2569372;23;20149;-68
2022/01/25 02:33:29;;;;;;;19.50;12.50;;;;;;;-3.79;54.03;103168.78;2569676;23;20149;-68
2022/01/25 02:34:30;;;;;;;18.90;12.15;;;;;;;-4.31;54.18;103114.19;2569666;23;20152;-66
2022/01/25 02:35:31;;;;;;;15.90;12.03;;;;;;;-3.81;54.11;103174.47;2569928;23;20230;-66
2022/01/25 02:36:32;;;;;;;16.80;11.63;;;;;;;-4.56;54.18;103038.44;2569194;23;20952;-66
2022/01/25 02:37:33;;;;;;;18.33;12.27;;;;;;;-3.77;54.47;103161.19;2567787;23;20620;-66
2022/01/25 02:38:34;;;;;;;19.43;12.77;;;;;;;-3.78;54.16;103162.25;2569402;23;20621;-68
2022/01/25 02:39:37;;;;;;;17.48;12.65;;;;;;;-3.85;54.49;103162.56;2569911;23;20164;-68
2022/01/25 02:40:38;;;;;;;19.40;13.25;;;;;;;-3.86;54.29;103157.44;2568973;23;20152;-68
2022/01/25 02:41:39;;;;;;;19.23;12.30;;;;;;;-4.09;54.33;103118.19;2568547;23;20163;-68
2022/01/25 02:42:39;;;;;;;19.90;12.73;;;;;;;-4.05;54.54;103137.41;2556546;23;20161;-68
2022/01/25 02:43:45;;;;;;;21.43;12.97;;;;;;;-3.91;54.52;103158.22;2568358;23;20236;-68
2022/01/25 02:44:48;;;;;;;18.10;12.82;;;;;;;-3.90;54.41;103151.72;2569817;23;20199;-68
2022/01/25 02:48:31;;;;;;;19.10;12.43;;;;;;;-4.72;54.61;103040.31;2569252;23;20140;-68
2022/01/25 02:49:34;;;;;;;18.25;12.57;;;;;;;-4.04;54.46;103166.13;2569895;23;20503;-68
2022/01/25 02:50:34;;;;;;;20.42;14.10;;;;;;;-4.01;55.03;103149.34;2568300;23;20152;-68
2022/01/25 02:51:41;;;;;;;19.63;12.80;;;;;;;-4.13;54.67;103138.78;2569833;23;20148;-68
2022/01/25 02:52:42;;;;;;;20.58;13.57;;;;;;;-4.06;54.58;103149.34;2566477;23;20166;-68
2022/01/25 02:53:43;;;;;;;19.93;13.40;;;;;;;-4.56;55.11;103063.56;2569766;23;20145;-69
2022/01/25 02:54:44;;;;;;;19.87;13.40;;;;;;;-3.97;54.65;103150.38;2569286;23;20231;-68
2022/01/25 02:55:44;;;;;;;19.97;13.27;;;;;;;-3.92;54.55;103153.09;2569639;23;20152;-68
2022/01/25 02:56:46;;;;;;;18.73;13.57;;;;;;;-3.91;54.27;103158.22;2569941;23;20395;-68
2022/01/25 02:57:47;;;;;;;20.13;13.48;;;;;;;-3.87;54.71;103153.91;2567631;23;20243;-68
2022/01/25 02:58:48;;;;;;;22.03;13.60;;;;;;;-3.86;54.55;103144.69;2569198;23;20159;-68
2022/01/25 02:59:49;;;;;;;19.35;13.55;;;;;;;-4.07;54.05;103118.72;2569101;23;20621;-69
2022/01/25 03:00:50;;;;;;;20.52;13.73;;;;;;;-4.00;54.47;103129.28;2569802;23;20497;-68
2022/01/25 03:01:50;;;;;;;20.87;13.33;;;;;;;-3.83;54.02;103146.84;2569806;23;20610;-68
2022/01/25 03:02:51;;;;;;;19.63;13.23;;;;;;;-3.87;53.69;103134.94;2569685;23;20188;-68
2022/01/25 03:03:52;;;;;;;19.23;13.00;;;;;;;-4.54;53.62;103050.59;2569279;23;20154;-68
2022/01/25 03:04:52;;;;;;;21.80;12.97;;;;;;;-4.32;54.25;103059.22;2569574;23;20179;-68
2022/01/25 03:05:53;;;;;;;17.73;12.73;;;;;;;-3.89;53.87;103141.72;2569280;23;20240;-68
2022/01/25 03:06:54;;;;;;;20.50;12.50;;;;;;;-3.91;54.46;103133.84;2569748;23;20290;-68
2022/01/25 03:07:56;;;;;;;20.83;13.43;;;;;;;-3.90;53.81;103137.38;2567045;23;20183;-69
2022/01/25 03:08:56;;;;;;;19.10;13.02;;;;;;;-3.89;54.20;103131.69;2569732;23;20234;-68
2022/01/25 03:09:59;;;;;;;19.73;13.73;;;;;;;-3.86;54.15;103133.84;2568140;23;20156;-68
2022/01/25 03:10:59;;;;;;;19.38;12.85;;;;;;;-3.84;54.29;103134.41;2568692;23;20152;-68
2022/01/25 03:12:03;;;;;;;19.07;12.87;;;;;;;-4.64;53.94;102993.78;2569613;23;20219;-68
2022/01/25 03:13:06;;;;;;;17.25;12.85;;;;;;;-4.13;54.10;103100.88;2568282;23;20156;-68
2022/01/25 03:14:10;;;;;;;18.55;13.23;;;;;;;-4.62;53.96;103002.44;2568509;23;20152;-68
2022/01/25 03:16:32;;;;;;;20.75;13.48;;;;;;;-3.71;53.97;103112.13;2569862;23;20147;-69
2022/01/25 03:17:35;;;;;;;22.38;13.27;;;;;;;-3.72;54.10;103118.63;2567219;23;20139;-69
2022/01/25 03:18:40;;;;;;;18.15;13.02;;;;;;;-4.33;53.45;103002.63;2569534;23;20148;-69
2022/01/25 03:19:48;;;;;;;18.48;13.18;;;;;;;-4.28;53.83;103008.03;2569529;23;20137;-69
2022/01/25 03:20:57;;;;;;;21.15;13.13;;;;;;;-3.74;53.56;103090.19;2569629;23;20188;-69
2022/01/25 03:22:05;;;;;;;19.23;13.10;;;;;;;-3.58;53.36;103110.72;2569145;23;20196;-68
2022/01/25 03:23:16;;;;;;;20.38;13.57;;;;;;;-4.11;53.71;103013.94;2568728;23;20184;-69
2022/01/25 03:24:17;;;;;;;20.10;13.57;;;;;;;-3.65;53.60;103104.78;2569387;23;20502;-68
2022/01/25 03:25:17;;;;;;;21.77;13.73;;;;;;;-4.18;53.32;103021.53;2569537;23;20149;-68
2022/01/25 03:26:19;;;;;;;19.87;12.50;;;;;;;-3.57;53.62;103104.19;2568207;23;20577;-68
2022/01/25 03:27:19;;;;;;;19.38;13.65;;;;;;;-4.26;53.55;103006.66;2567339;23;20152;-69
2022/01/25 03:28:20;;;;;;;18.93;13.27;;;;;;;-3.53;53.58;103105.28;2568943;23;20156;-68
2022/01/25 03:29:21;;;;;;;18.67;13.53;;;;;;;-3.53;53.54;103106.09;2569208;23;20149;-68
2022/01/25 03:30:21;;;;;;;19.40;13.13;;;;;;;-3.55;53.04;103097.41;2568699;23;20723;-68
2022/01/25 03:31:23;;;;;;;20.47;13.30;;;;;;;-3.54;53.39;103088.19;2568380;23;20180;-68
2022/01/25 03:32:23;;;;;;;20.17;13.88;;;;;;;-3.45;53.30;103102.78;2568900;23;20544;-68
2022/01/25 03:33:24;;;;;;;18.90;12.77;;;;;;;-3.80;53.14;103037.09;2568482;23;20236;-68
2022/01/25 03:34:25;;;;;;;18.43;13.27;;;;;;;-3.42;53.23;103112.25;2568801;23;20149;-68
2022/01/25 03:35:25;;;;;;;19.00;13.60;;;;;;;-3.47;52.76;103094.13;2568946;23;20155;-68
2022/01/25 03:36:26;;;;;;;19.80;13.70;;;;;;;-3.40;52.89;103102.75;2568823;23;20164;-68
2022/01/25 03:37:27;;;;;;;19.02;13.43;;;;;;;-3.98;52.98;102997.91;2567242;23;20172;-68
2022/01/25 03:38:27;;;;;;;19.20;13.47;;;;;;;-3.84;52.94;103026.03;2580592;23;20151;-68
2022/01/25 03:39:28;;;;;;;18.53;12.27;;;;;;;-3.40;52.83;103100.03;2580582;23;20205;-68
2022/01/25 03:40:29;;;;;;;20.23;12.87;;;;;;;-3.87;53.21;103028.44;2568909;23;20492;-69
2022/01/25 03:41:30;;;;;;;19.85;12.93;;;;;;;-3.66;53.19;103089.59;2568552;23;20588;-69
2022/01/25 03:42:35;;;;;;;21.43;13.63;;;;;;;-4.44;53.87;103020.81;2568740;23;20273;-69
2022/01/25 03:43:37;;;;;;;18.27;12.57;;;;;;;-3.85;54.37;103110.28;2581165;23;20148;-69
2022/01/25 03:44:39;;;;;;;18.88;13.40;;;;;;;-3.93;54.22;103118.97;2580854;23;20167;-68
2022/01/25 03:45:44;;;;;;;19.40;13.35;;;;;;;-4.68;54.57;103003.53;2569574;23;20214;-68
2022/01/25 03:49:48;;;;;;;19.17;13.75;;;;;;;-4.42;55.30;103028.66;2578493;23;20215;-69
2022/01/25 03:50:42;;;;;;;18.88;12.98;;;;;;;-4.70;53.93;102948.06;2568702;23;20137;-69
2022/01/25 03:51:42;;;;;;;21.30;13.43;;;;;;;-3.70;54.38;103105.59;2569701;23;20540;-68
2022/01/25 03:52:43;;;;;;;19.47;14.03;;;;;;;-3.73;54.20;103100.75;2569544;23;20178;-68
2022/01/25 03:53:44;;;;;;;23.93;13.77;;;;;;;-3.63;54.21;103108.03;2568860;23;20387;-69
2022/01/25 03:54:44;;;;;;;19.70;13.23;;;;;;;-3.57;53.38;103106.91;2569367;23;20529;-69
2022/01/25 03:55:47;;;;;;;19.53;12.90;;;;;;;-3.65;53.80;103100.16;2569432;23;20502;-69
2022/01/25 03:56:48;;;;;;;18.65;12.73;;;;;;;-3.48;53.24;103110.66;2569307;23;20618;-68
2022/01/25 03:57:48;;;;;;;18.77;13.27;;;;;;;-3.48;53.42;103110.66;2567041;23;20562;-69
2022/01/25 03:58:50;;;;;;;18.97;13.23;;;;;;;-3.50;53.02;103110.94;2569462;23;20156;-68
2022/01/25 03:59:50;;;;;;;24.95;13.23;;;;;;;-3.47;53.07;103117.69;2568629;23;20159;-69
2022/01/25 04:00:51;;;;;;;19.43;13.37;;;;;;;-3.51;53.09;103114.75;2569505;23;20231;-69
2022/01/25 04:01:51;;;;;;;18.70;13.30;;;;;;;-3.51;53.17;103122.88;2569333;23;20664;-69
2022/01/25 04:03:02;;;;;;;21.43;13.63;;;;;;;-4.31;52.94;102987.72;2568851;23;20509;-69
2022/01/25 04:04:08;;;;;;;20.83;13.27;;;;;;;-3.66;53.31;103095.00;2569479;23;20587;-69
2022/01/25 04:05:19;;;;;;;20.27;13.68;;;;;;;-4.08;53.38;103037.75;2569639;23;20136;-68
2022/01/25 04:06:21;;;;;;;19.02;13.45;;;;;;;-3.53;53.42;103119.66;2568720;23;20149;-69
2022/01/25 04:07:29;;;;;;;19.73;13.65;;;;;;;-3.49;53.50;103117.19;2566815;23;20152;-68
2022/01/25 04:08:30;;;;;;;20.13;13.93;;;;;;;-3.75;53.38;103070.41;2569156;23;20156;-69
2022/01/25 04:09:30;;;;;;;18.47;13.47;;;;;;;-3.46;52.93;103114.72;2569145;23;20215;-69
2022/01/25 04:10:32;;;;;;;20.73;13.53;;;;;;;-3.41;52.98;103116.59;2568451;23;20508;-69
2022/01/25 04:11:33;;;;;;;19.52;12.77;;;;;;;-3.46;53.09;103128.28;2568775;23;20200;-69
2022/01/25 04:12:33;;;;;;;20.77;13.68;;;;;;;-3.47;53.21;103112.28;2569397;23;20199;-69
2022/01/25 04:13:34;;;;;;;20.80;13.70;;;;;;;-3.48;53.33;103113.38;2569511;23;20649;-69
2022/01/25 04:14:34;;;;;;;22.30;13.23;;;;;;;-4.13;52.89;103010.69;2569135;23;20645;-69
2022/01/25 04:15:39;;;;;;;18.60;12.87;;;;;;;-3.54;53.11;103115.28;2568949;23;20160;-69
2022/01/25 04:16:51;;;;;;;18.02;12.48;;;;;;;-3.58;53.13;103108.81;2569396;23;20152;-69
2022/01/25 04:18:02;;;;;;;20.58;13.35;;;;;;;-3.99;53.30;103047.75;2567155;23;20141;-69
2022/01/25 04:19:13;;;;;;;18.13;12.65;;;;;;;-3.64;53.17;103101.78;2569400;23;20530;-68
2022/01/25 04:20:25;;;;;;;18.70;12.23;;;;;;;-3.76;53.64;103092.34;2568253;23;20481;-69
2022/01/25 04:25:14;;;;;;;18.90;12.38;;;;;;;-3.75;53.82;103105.63;2568958;23;20153;-69
2022/01/25 04:26:15;;;;;;;17.20;12.40;;;;;;;-3.76;53.83;103100.47;2568486;23;20626;-69
2022/01/25 04:27:15;;;;;;;19.60;12.77;;;;;;;-3.79;53.38;103101.03;2567267;23;20499;-69
2022/01/25 04:28:16;;;;;;;19.10;13.17;;;;;;;-3.82;53.82;103093.47;2568679;23;20172;-68
2022/01/25 04:29:17;;;;;;;18.30;13.00;;;;;;;-3.91;53.82;103098.63;2568621;23;20155;-69
2022/01/25 04:30:18;;;;;;;18.98;13.40;;;;;;;-3.87;53.90;103090.75;2567624;23;20164;-68
2022/01/25 04:31:19;;;;;;;20.50;13.47;;;;;;;-3.92;53.96;103093.50;2568538;23;20156;-69
2022/01/25 04:32:33;;;;;;;21.02;13.82;;;;;;;-3.90;54.53;103088.63;2569486;23;20373;-68
2022/01/25 04:33:55;;;;;;;19.17;12.75;;;;;;;-3.89;53.72;103092.94;2569472;23;20133;-69
2022/01/25 04:35:11;;;;;;;20.88;12.98;;;;;;;-3.96;54.21;103095.94;2569457;23;20510;-68
2022/01/25 04:49:21;;;;;;;21.27;13.95;;;;;;;-4.05;54.42;103040.72;2569331;23;20578;-69
2022/01/25 04:52:55;;;;;;;21.60;14.20;;;;;;;-3.73;53.60;103086.38;2569122;23;20247;-69
2022/01/25 04:54:06;;;;;;;19.10;13.10;;;;;;;-3.69;53.40;103076.63;2568835;23;20136;-69
2022/01/25 04:55:17;;;;;;;21.17;13.65;;;;;;;-4.32;53.41;102982.63;2569313;23;20491;-69
2022/01/25 04:56:43;;;;;;;20.02;13.10;;;;;;;-3.61;53.21;103076.03;2569038;23;20143;-69
2022/01/25 04:57:48;;;;;;;20.20;13.27;;;;;;;-4.02;53.36;103023.91;2566967;23;20167;-69
2022/01/25 04:59:01;;;;;;;20.20;12.63;;;;;;;-3.62;53.18;103077.13;2569185;23;20540;-69
2022/01/25 05:00:12;;;;;;;19.48;13.05;;;;;;;-4.60;53.60;102931.81;2568364;23;20137;-69
2022/01/25 05:01:12;;;;;;;18.95;13.05;;;;;;;-3.72;52.84;103050.06;2568901;23;20167;-69
2022/01/25 05:03:52;;;;;;;18.13;13.20;;;;;;;-3.70;53.11;103056.81;2569410;23;20152;-69
2022/01/25 05:05:09;;;;;;;20.77;13.23;;;;;;;-3.56;52.79;103076.81;2569767;23;20220;-69
2022/01/25 05:06:14;;;;;;;20.00;13.20;;;;;;;-3.63;52.99;103062.78;2568731;23;20148;-69
2022/01/25 05:09:28;;;;;;;20.37;13.93;;;;;;;-4.75;55.44;102877.75;2569269;23;20152;-69
2022/01/25 05:10:31;;;;;;;21.90;13.73;;;;;;;-4.27;55.77;102961.75;2567936;23;20199;-69
2022/01/25 05:11:33;;;;;;;19.35;13.35;;;;;;;-3.55;54.39;103061.38;2569121;23;20196;-69
2022/01/25 05:12:41;;;;;;;19.75;13.98;;;;;;;-4.14;57.79;102955.75;2569165;23;20618;-69
2022/01/25 05:15:01;;;;;;;19.20;13.15;;;;;;;-3.57;56.30;103044.56;2568309;23;20168;-70
2022/01/25 05:16:07;;;;;;;19.83;13.73;;;;;;;-3.40;57.23;103058.56;2568770;23;20236;-69
2022/01/25 05:17:11;;;;;;;21.88;14.32;;;;;;;-3.36;57.50;103079.44;2568389;23;20137;-70
2022/01/25 05:18:23;;;;;;;20.17;14.38;;;;;;;-3.70;54.73;103018.09;2569235;23;20567;-70
2022/01/25 05:22:03;;;;;;;21.00;13.68;;;;;;;-4.42;57.56;102890.63;2568948;23;20132;-70
2022/01/25 05:22:22;;;;;;;21.52;14.02;;;;;;;-3.87;57.10;102982.41;2567037;23;20183;-69
2022/01/25 05:23:23;;;;;;;21.98;14.50;;;;;;;-3.43;54.05;103056.44;2566695;23;20180;-70
2022/01/25 05:24:24;;;;;;;21.30;14.17;;;;;;;-4.05;55.62;102951.34;2562458;23;20152;-69
2022/01/25 05:25:25;;;;;;;22.13;15.70;;;;;;;-4.10;54.14;102959.50;2580768;23;20374;-70
2022/01/25 05:26:26;;;;;;;22.77;15.87;;;;;;;-3.99;53.56;103042.34;2569084;23;20232;-69
2022/01/25 05:27:29;;;;;;;24.75;15.60;;;;;;;-3.78;54.26;103057.41;2567760;23;20159;-70
2022/01/25 05:28:29;;;;;;;22.90;16.15;;;;;;;-3.68;54.11;103065.50;2569352;23;20144;-70
2022/01/25 05:29:30;;;;;;;25.87;17.23;;;;;;;-3.60;53.72;103058.69;2569704;23;20236;-69
2022/01/25 05:30:30;;;;;;;24.10;16.17;;;;;;;-3.64;53.21;103035.94;2569104;23;21127;-70
2022/01/25 05:31:31;;;;;;;23.77;16.37;;;;;;;-3.46;53.09;103063.22;2568158;23;20152;-70
2022/01/25 05:32:34;;;;;;;31.48;17.17;;;;;;;-4.16;53.25;102944.34;2567291;23;20195;-70
2022/01/25 05:33:34;;;;;;;26.10;17.55;;;;;;;-3.38;52.99;103051.75;2568682;23;20148;-70
2022/01/25 05:34:35;;;;;;;27.27;17.67;;;;;;;-3.30;52.67;103058.50;2567678;23;20160;-70
2022/01/25 05:35:36;;;;;;;30.63;19.50;;;;;;;-3.28;52.33;103043.56;2568393;23;20215;-70
2022/01/25 05:36:38;;;;;;;37.07;22.33;;;;;;;-3.23;52.31;103056.31;2568870;23;20157;-70
2022/01/25 05:37:42;;;;;;;34.42;20.05;;;;;;;-3.30;52.64;103047.66;2566905;23;20148;-70
2022/01/25 05:38:44;;;;;;;26.90;17.90;;;;;;;-3.33;52.24;103045.53;2568994;23;20633;-70
2022/01/25 05:39:46;;;;;;;25.80;17.13;;;;;;;-3.54;52.46;103044.03;2569348;23;20159;-70
2022/01/25 05:40:56;;;;;;;30.17;19.85;;;;;;;-4.72;53.19;102859.06;2569360;23;20152;-70
2022/01/25 05:42:03;;;;;;;30.85;20.42;;;;;;;-3.56;53.35;103043.47;2568489;23;20145;-70
2022/01/25 05:44:00;;;;;;;29.35;19.00;;;;;;;-3.53;53.89;103046.47;2569023;23;20258;-70
2022/01/25 05:44:54;;;;;;;32.22;20.67;;;;;;;-3.78;52.55;103016.78;2569327;23;20153;-70
2022/01/25 05:46:02;;;;;;;32.55;19.75;;;;;;;-3.57;53.47;103018.28;2565534;23;20305;-69
2022/01/25 05:47:05;;;;;;;26.88;17.50;;;;;;;-4.03;53.08;102949.19;2568381;23;20128;-70
2022/01/25 05:48:06;;;;;;;32.20;21.13;;;;;;;-3.52;53.28;103041.84;2567809;23;20490;-70
2022/01/25 05:49:07;;;;;;;34.33;21.90;;;;;;;-3.63;53.58;103019.41;2569043;23;20222;-70
2022/01/25 05:50:08;;;;;;;34.37;20.47;;;;;;;-3.68;53.65;103010.50;2567432;23;20160;-70
2022/01/25 05:51:09;;;;;;;30.60;19.07;;;;;;;-3.88;53.69;102978.91;2567370;23;20158;-71
2022/01/25 05:52:10;;;;;;;28.02;18.05;;;;;;;-4.01;52.91;102947.00;2568512;23;20405;-70
2022/01/25 05:53:10;;;;;;;24.87;17.37;;;;;;;-3.47;53.65;103029.06;2569026;23;20149;-70
2022/01/25 05:54:12;;;;;;;35.10;22.03;;;;;;;-3.53;54.00;103029.38;2568273;23;20163;-69
2022/01/25 05:55:13;;;;;;;27.98;19.52;;;;;;;-3.48;54.10;103032.88;2568415;23;20159;-70
2022/01/25 05:56:13;;;;;;;28.07;19.07;;;;;;;-4.03;53.03;102961.91;2579523;23;20167;-69
2022/01/25 05:57:14;;;;;;;31.07;20.27;;;;;;;-4.30;53.44;102943.34;2579576;23;20214;-69
2022/01/25 05:58:14;;;;;;;25.00;16.80;;;;;;;-4.26;53.75;102955.22;2568392;23;20158;-69
2022/01/25 05:59:15;;;;;;;27.90;18.70;;;;;;;-3.81;53.74;103024.63;2560639;23;20152;-69
2022/01/25 06:00:16;;;;;;;29.97;18.13;;;;;;;-3.66;53.78;103033.50;2561178;23;20292;-70
2022/01/25 06:01:18;;;;;;;31.87;19.70;;;;;;;-3.54;53.01;103042.09;2566295;23;20636;-69
2022/01/25 06:02:21;;;;;;;28.40;18.15;;;;;;;-3.77;53.38;103039.25;2563439;23;20167;-70
2022/01/25 06:03:21;;;;;;;26.75;17.80;;;;;;;-3.93;53.27;103026.88;2567409;23;20283;-70
2022/01/25 06:04:23;;;;;;;28.27;16.93;;;;;;;-4.69;53.73;102909.94;2567997;23;20169;-70
2022/01/25 06:05:23;;;;;;;24.77;16.70;;;;;;;-4.82;54.46;102924.03;2568631;23;20207;-70
2022/01/25 06:06:24;;;;;;;28.00;17.73;;;;;;;-5.13;54.63;102862.19;2568584;23;20227;-69
2022/01/25 06:07:26;;;;;;;26.13;17.20;;;;;;;-3.91;54.50;103043.66;2568236;23;20183;-69
2022/01/25 06:08:27;;;;;;;26.48;17.75;;;;;;;-4.15;54.33;103005.53;2568897;23;20155;-69
2022/01/25 06:09:28;;;;;;;26.07;16.63;;;;;;;-3.63;53.94;103041.09;2568527;23;20152;-69
2022/01/25 06:10:28;;;;;;;29.20;18.57;;;;;;;-3.55;53.24;103037.00;2568736;23;20153;-70
2022/01/25 06:11:29;;;;;;;30.70;19.63;;;;;;;-3.79;53.36;102996.16;2567377;23;20279;-69
2022/01/25 06:12:30;;;;;;;27.87;18.27;;;;;;;-3.62;52.63;103012.91;2568776;23;20172;-69
2022/01/25 06:13:30;;;;;;;24.47;16.10;;;;;;;-3.73;52.62;102991.53;2568752;23;20148;-69
2022/01/25 06:14:31;;;;;;;27.20;18.40;;;;;;;-3.41;52.21;103038.78;2566551;23;20157;-70
2022/01/25 06:15:31;;;;;;;25.20;17.30;;;;;;;-3.63;52.58;102996.91;2569011;23;20152;-69
2022/01/25 06:16:32;;;;;;;22.93;15.87;;;;;;;-3.98;52.50;102938.31;2568106;23;20213;-69
2022/01/25 06:17:34;;;;;;;25.75;16.65;;;;;;;-3.74;52.01;102973.66;2559792;23;20176;-69
2022/01/25 06:18:35;;;;;;;23.70;15.93;;;;;;;-3.33;52.22;103038.19;2565121;23;20152;-69
2022/01/25 06:19:36;;;;;;;23.77;16.30;;;;;;;-3.28;51.72;103040.84;2564896;23;20546;-69
2022/01/25 06:20:36;;;;;;;24.87;16.83;;;;;;;-3.79;51.79;102947.41;2569451;23;20157;-69
2022/01/25 06:21:37;;;;;;;23.10;15.33;;;;;;;-3.86;52.16;102938.78;2567092;23;20641;-70